createdAt,value
2022-11-19T00:00:11.661Z,-2.21
2022-11-19T00:03:03.868Z,-2.35
2022-11-19T00:05:35.821Z,-2.35
2022-11-19T00:08:08.106Z,-2.31
2022-11-19T00:10:40.780Z,-2.33
2022-11-19T00:13:09.639Z,-2.27
2022-11-19T00:15:44.509Z,-2.23
2022-11-19T00:18:16.091Z,-2.10
2022-11-19T00:20:51.451Z,-2.10
2022-11-19T00:23:23.975Z,-2.26
2022-11-19T00:25:55.918Z,-2.22
2022-11-19T00:28:27.274Z,-2.27
2022-11-19T00:31:04.341Z,-2.29
2022-11-19T00:33:35.626Z,-2.33
2022-11-19T00:36:11.636Z,-2.26
2022-11-19T00:38:43.379Z,-2.22
2022-11-19T00:41:18.266Z,-2.28
2022-11-19T00:43:52.814Z,-2.37
2022-11-19T00:46:29.636Z,-2.20
2022-11-19T00:49:03.339Z,-2.21
2022-11-19T00:51:35.419Z,-2.30
2022-11-19T00:54:08.901Z,-2.09
2022-11-19T00:56:40.751Z,-2.21
2022-11-19T00:59:12.427Z,-2.33
2022-11-19T01:01:47.299Z,-2.29
2022-11-19T01:04:18.270Z,-1.90
2022-11-19T01:06:50.651Z,-2.11
2022-11-19T01:09:22.277Z,-2.12
2022-11-19T01:11:53.814Z,-2.26
2022-11-19T01:14:25.107Z,-2.22
2022-11-19T01:16:59.820Z,-2.25
2022-11-19T01:19:31.130Z,-2.30
2022-11-19T01:22:03.041Z,-2.35
2022-11-19T01:24:34.572Z,-2.18
2022-11-19T01:27:06.719Z,-2.23
2022-11-19T01:29:40.589Z,-2.30
2022-11-19T01:32:15.359Z,-2.42
2022-11-19T01:34:46.858Z,-2.29
2022-11-19T01:37:18.843Z,-2.28
2022-11-19T01:39:50.453Z,-2.40
2022-11-19T01:42:40.692Z,-2.26
2022-11-19T01:45:27.859Z,-2.42
2022-11-19T01:48:06.140Z,-2.30
2022-11-19T01:50:41.186Z,-2.45
2022-11-19T01:53:14.413Z,-2.47
2022-11-19T01:55:47.594Z,-2.37
2022-11-19T01:58:23.305Z,-2.49
2022-11-19T02:00:54.677Z,-2.42
2022-11-19T02:03:31.209Z,-2.71
2022-11-19T02:06:04.795Z,-2.50
2022-11-19T02:08:46.328Z,-2.54
2022-11-19T02:11:52.462Z,-2.66
2022-11-19T02:14:36.061Z,-2.70
2022-11-19T02:17:17.930Z,-2.51
2022-11-19T02:20:20.234Z,-2.50
2022-11-19T02:23:24.468Z,-2.58
2022-11-19T02:26:21.825Z,-2.50
2022-11-19T02:28:57.716Z,-2.53
2022-11-19T02:31:39.581Z,-2.35
2022-11-19T02:34:17.239Z,-2.25
2022-11-19T02:36:53.558Z,-2.52
2022-11-19T02:39:31.413Z,-2.45
2022-11-19T02:42:07.734Z,-2.54
2022-11-19T02:44:56.784Z,-2.40
2022-11-19T02:47:37.369Z,-2.48
2022-11-19T02:50:14.602Z,-2.29
2022-11-19T02:52:48.447Z,-2.08
2022-11-19T02:55:23.265Z,-2.26
2022-11-19T02:57:59.618Z,-2.52
2022-11-19T03:00:49.606Z,-2.67
2022-11-19T03:03:37.977Z,-2.52
2022-11-19T03:06:15.289Z,-2.45
2022-11-19T03:08:48.104Z,-2.64
2022-11-19T03:11:24.198Z,-2.71
2022-11-19T03:14:14.100Z,-2.10
2022-11-19T03:16:51.932Z,-2.08
2022-11-19T03:19:43.465Z,-2.37
2022-11-19T03:22:21.966Z,-2.62
2022-11-19T03:25:00.872Z,-2.41
2022-11-19T03:27:36.699Z,-2.32
2022-11-19T03:30:10.811Z,-2.55
2022-11-19T03:32:48.405Z,-2.46
2022-11-19T03:35:26.452Z,-2.37
2022-11-19T03:38:04.651Z,-2.48
2022-11-19T03:40:38.105Z,-2.45
2022-11-19T03:43:14.868Z,-2.61
2022-11-19T03:45:49.451Z,-2.64
2022-11-19T03:48:24.293Z,-2.51
2022-11-19T03:51:04.433Z,-2.60
2022-11-19T03:53:35.553Z,-2.60
2022-11-19T03:56:10.970Z,-2.48
2022-11-19T03:58:44.245Z,-2.47
2022-11-19T04:01:17.377Z,-2.46
2022-11-19T04:04:08.623Z,-2.47
2022-11-19T04:06:42.609Z,-2.67
2022-11-19T04:09:13.445Z,-2.64
2022-11-19T04:14:14.871Z,-2.65
2022-11-19T04:16:48.834Z,-2.38
2022-11-19T04:19:20.104Z,-2.32
2022-11-19T04:21:54.277Z,-2.35
2022-11-19T04:24:25.040Z,-2.54
2022-11-19T04:26:56.218Z,-2.62
2022-11-19T04:29:27.011Z,-2.46
2022-11-19T04:31:58.424Z,-2.25
2022-11-19T04:34:29.195Z,-2.22
2022-11-19T04:37:03.377Z,-2.35
2022-11-19T04:39:34.379Z,-2.20
2022-11-19T04:42:05.660Z,-2.30
2022-11-19T04:44:36.986Z,-2.30
2022-11-19T04:47:08.691Z,-1.93
2022-11-19T04:49:39.665Z,-2.11
2022-11-19T04:52:14.122Z,-2.26
2022-11-19T04:54:47.789Z,-2.09
2022-11-19T04:57:19.528Z,-2.30
2022-11-19T04:59:50.583Z,-2.51
2022-11-19T05:02:22.357Z,-2.47
2022-11-19T05:04:53.443Z,-2.41
2022-11-19T05:07:28.116Z,-2.40
2022-11-19T05:09:59.233Z,-2.51
2022-11-19T05:12:30.979Z,-2.43
2022-11-19T05:15:02.359Z,-2.35
2022-11-19T05:17:34.034Z,-2.28
2022-11-19T05:20:05.310Z,-2.25
2022-11-19T05:22:39.459Z,-2.48
2022-11-19T05:25:11.615Z,-2.03
2022-11-19T05:27:43.086Z,-2.16
2022-11-19T05:30:15.673Z,-2.04
2022-11-19T05:32:47.407Z,-2.08
2022-11-19T05:35:18.510Z,-2.29
2022-11-19T05:37:54.406Z,-2.18
2022-11-19T05:40:25.829Z,-2.33
2022-11-19T05:42:57.623Z,-2.26
2022-11-19T05:45:28.749Z,-2.21
2022-11-19T05:48:00.198Z,-2.29
2022-11-19T05:50:31.489Z,-1.66
2022-11-19T05:53:06.284Z,-2.13
2022-11-19T05:55:37.791Z,-2.09
2022-11-19T05:58:11.340Z,-2.14
2022-11-19T06:00:42.815Z,-2.24
2022-11-19T06:03:14.907Z,-2.12
2022-11-19T06:05:46.490Z,-2.09
2022-11-19T06:08:21.130Z,-2.07
2022-11-19T06:10:52.811Z,-2.11
2022-11-19T06:13:24.699Z,-2.03
2022-11-19T06:15:56.294Z,-2.12
2022-11-19T06:18:30.159Z,-2.09
2022-11-19T06:21:12.006Z,-2.18
2022-11-19T06:23:50.120Z,-2.01
2022-11-19T06:26:26.082Z,-2.10
2022-11-19T06:28:58.732Z,-2.11
2022-11-19T06:31:30.440Z,-2.04
2022-11-19T06:34:04.211Z,-2.13
2022-11-19T06:36:40.418Z,-2.07
2022-11-19T06:39:17.815Z,-1.92
2022-11-19T06:41:49.355Z,-1.72
2022-11-19T06:44:21.472Z,-1.76
2022-11-19T06:46:53.047Z,-1.64
2022-11-19T06:49:25.143Z,-1.93
2022-11-19T06:51:56.880Z,-1.70
2022-11-19T06:54:31.450Z,-1.89
2022-11-19T06:57:02.600Z,-1.91
2022-11-19T06:59:35.151Z,-1.85
2022-11-19T07:02:06.846Z,-1.81
2022-11-19T07:04:38.439Z,-1.33
2022-11-19T07:07:10.158Z,-1.48
2022-11-19T07:09:44.767Z,-1.38
2022-11-19T07:12:16.133Z,-1.51
2022-11-19T07:14:49.107Z,-1.27
2022-11-19T07:17:20.624Z,-1.28
2022-11-19T07:19:52.741Z,-1.21
2022-11-19T07:22:24.398Z,-0.85
2022-11-19T07:24:59.068Z,-1.27
2022-11-19T07:27:30.555Z,-1.74
2022-11-19T07:30:04.467Z,-1.40
2022-11-19T07:32:36.497Z,-1.35
2022-11-19T07:35:09.533Z,-1.08
2022-11-19T07:37:41.875Z,-0.76
2022-11-19T07:40:17.642Z,-0.63
2022-11-19T07:42:53.527Z,-0.57
2022-11-19T07:45:27.409Z,-0.51
2022-11-19T07:47:59.389Z,-0.49
2022-11-19T07:50:31.859Z,-0.10
2022-11-19T07:53:03.909Z,0.36
2022-11-19T07:55:39.877Z,0.45
2022-11-19T07:58:12.028Z,0.39
2022-11-19T08:00:45.025Z,0.93
2022-11-19T08:03:17.122Z,0.93
2022-11-19T08:05:49.503Z,0.50
2022-11-19T08:08:21.529Z,0.62
2022-11-19T08:10:56.398Z,0.88
2022-11-19T08:13:28.349Z,0.75
2022-11-19T08:16:03.910Z,0.88
2022-11-19T08:18:33.226Z,0.98
2022-11-19T08:21:10.042Z,1.14
2022-11-19T08:23:42.800Z,1.13
2022-11-19T08:26:17.326Z,0.69
2022-11-19T08:28:48.664Z,0.68
2022-11-19T08:31:20.576Z,1.16
2022-11-19T08:33:52.166Z,0.59
2022-11-19T08:36:24.144Z,-0.20
2022-11-19T08:38:55.717Z,-0.19
2022-11-19T08:41:43.273Z,0.13
2022-11-19T08:44:15.070Z,0.85
2022-11-19T08:46:48.091Z,-0.06
2022-11-19T08:49:20.649Z,-0.05
2022-11-19T08:51:53.228Z,0.43
2022-11-19T08:54:25.516Z,0.76
2022-11-19T08:57:00.730Z,0.47
2022-11-19T08:59:32.963Z,0.26
2022-11-19T09:02:05.408Z,0.74
2022-11-19T09:04:37.569Z,0.91
2022-11-19T09:07:09.778Z,0.69
2022-11-19T09:09:41.630Z,1.42
2022-11-19T09:12:17.318Z,1.37
2022-11-19T09:14:50.732Z,0.55
2022-11-19T09:17:22.826Z,0.97
2022-11-19T09:19:54.473Z,0.95
2022-11-19T09:22:26.788Z,1.13
2022-11-19T09:24:58.460Z,0.83
2022-11-19T09:27:33.221Z,0.42
2022-11-19T09:30:04.515Z,0.67
2022-11-19T09:32:36.654Z,-0.08
2022-11-19T09:35:08.750Z,-0.04
2022-11-19T09:37:40.293Z,-0.07
2022-11-19T09:40:19.692Z,-0.10
2022-11-19T09:43:12.539Z,0.79
2022-11-19T09:45:59.668Z,0.42
2022-11-19T09:48:39.062Z,0.81
2022-11-19T09:51:16.148Z,0.67
2022-11-19T09:53:54.885Z,1.20
2022-11-19T09:56:30.816Z,1.09
2022-11-19T09:59:11.159Z,1.16
2022-11-19T10:01:43.588Z,1.27
2022-11-19T10:04:16.147Z,1.34
2022-11-19T10:06:57.182Z,1.41
2022-11-19T10:09:55.699Z,1.29
2022-11-19T10:12:55.459Z,1.02
2022-11-19T10:15:37.825Z,0.86
2022-11-19T10:18:18.132Z,1.22
2022-11-19T10:21:01.962Z,1.68
2022-11-19T10:23:51.701Z,1.91
2022-11-19T10:26:29.955Z,1.74
2022-11-19T10:29:02.151Z,1.47
2022-11-19T10:31:38.611Z,1.56
2022-11-19T10:34:18.006Z,1.15
2022-11-19T10:36:56.122Z,1.22
2022-11-19T10:39:32.788Z,1.28
2022-11-19T10:42:18.318Z,1.26
2022-11-19T10:44:56.727Z,1.20
2022-11-19T10:47:36.820Z,1.14
2022-11-19T10:50:11.464Z,1.34
2022-11-19T10:52:46.796Z,1.79
2022-11-19T10:55:27.140Z,1.40
2022-11-19T10:58:10.562Z,1.22
2022-11-19T11:00:44.849Z,1.23
2022-11-19T11:03:27.388Z,1.17
2022-11-19T11:06:02.486Z,1.42
2022-11-19T11:08:34.295Z,0.90
2022-11-19T11:11:05.826Z,1.26
2022-11-19T11:13:55.665Z,1.20
2022-11-19T11:16:35.207Z,1.48
2022-11-19T11:19:17.898Z,1.82
2022-11-19T11:21:55.121Z,1.69
2022-11-19T11:24:35.340Z,1.20
2022-11-19T11:27:23.136Z,1.37
2022-11-19T11:30:09.847Z,1.45
2022-11-19T11:32:43.059Z,1.19
2022-11-19T11:35:36.350Z,1.47
2022-11-19T11:38:09.112Z,1.61
2022-11-19T11:40:41.158Z,1.46
2022-11-19T11:43:21.160Z,1.84
2022-11-19T11:45:59.778Z,1.40
2022-11-19T11:48:41.241Z,1.43
2022-11-19T11:51:36.928Z,1.70
2022-11-19T11:54:18.790Z,1.74
2022-11-19T11:56:50.965Z,1.61
2022-11-19T11:59:29.885Z,1.84
2022-11-19T12:02:06.861Z,1.78
2022-11-19T12:04:38.557Z,2.52
2022-11-19T12:07:23.376Z,2.01
2022-11-19T12:10:03.793Z,1.97
2022-11-19T12:12:44.293Z,1.72
2022-11-19T12:15:24.066Z,1.62
2022-11-19T12:18:08.686Z,2.16
2022-11-19T12:20:49.113Z,2.80
2022-11-19T12:23:46.274Z,3.16
2022-11-19T12:26:25.255Z,2.42
2022-11-19T12:29:24.100Z,2.46
2022-11-19T12:32:18.999Z,1.69
2022-11-19T12:35:20.117Z,1.85
2022-11-19T12:38:19.256Z,1.97
2022-11-19T12:41:06.276Z,2.07
2022-11-19T12:43:58.778Z,2.34
2022-11-19T12:46:53.890Z,2.25
2022-11-19T12:49:54.131Z,1.74
2022-11-19T12:52:41.603Z,1.75
2022-11-19T12:55:21.087Z,2.11
2022-11-19T12:58:07.926Z,2.35
2022-11-19T13:00:45.423Z,2.25
2022-11-19T13:03:23.522Z,2.22
2022-11-19T13:05:59.909Z,2.12
2022-11-19T13:08:38.388Z,2.18
2022-11-19T13:11:14.223Z,2.00
2022-11-19T13:13:52.247Z,2.13
2022-11-19T13:16:26.617Z,1.83
2022-11-19T13:19:10.314Z,1.44
2022-11-19T13:21:49.442Z,1.89
2022-11-19T13:24:32.539Z,1.55
2022-11-19T13:27:07.198Z,1.64
2022-11-19T13:29:47.055Z,1.46
2022-11-19T13:32:24.215Z,1.62
2022-11-19T13:35:16.893Z,1.72
2022-11-19T13:37:58.757Z,1.45
2022-11-19T13:40:36.994Z,1.60
2022-11-19T13:43:32.087Z,1.77
2022-11-19T13:46:23.433Z,1.68
2022-11-19T13:49:01.833Z,2.19
2022-11-19T13:51:38.593Z,1.80
2022-11-19T13:54:12.114Z,2.31
2022-11-19T13:56:48.473Z,2.37
2022-11-19T13:59:40.172Z,1.97
2022-11-19T14:02:44.840Z,1.74
2022-11-19T14:08:53.519Z,2.50
2022-11-19T14:11:49.829Z,2.42
2022-11-19T14:14:50.549Z,1.96
2022-11-19T14:17:47.392Z,1.55
2022-11-19T14:20:50.387Z,1.54
2022-11-19T14:24:01.717Z,1.54
2022-11-19T14:27:18.798Z,2.28
2022-11-19T14:30:03.888Z,1.80
2022-11-19T14:32:46.677Z,2.13
2022-11-19T14:35:39.756Z,2.07
2022-11-19T14:38:39.148Z,2.13
2022-11-19T14:41:31.904Z,1.26
2022-11-19T14:44:14.656Z,0.70
2022-11-19T14:46:50.222Z,0.94
2022-11-19T14:49:39.369Z,1.14
2022-11-19T14:52:24.175Z,1.17
2022-11-19T14:55:03.394Z,1.20
2022-11-19T14:57:39.670Z,1.30
2022-11-19T15:00:33.947Z,1.32
2022-11-19T15:03:11.010Z,1.90
2022-11-19T15:05:47.282Z,1.63
2022-11-19T15:09:04.902Z,1.99
2022-11-19T15:12:05.505Z,1.67
2022-11-19T15:15:07.419Z,1.37
2022-11-19T15:17:43.327Z,1.63
2022-11-19T15:20:31.322Z,1.91
2022-11-19T15:23:16.609Z,1.90
2022-11-19T15:26:02.259Z,2.02
2022-11-19T15:28:49.276Z,1.99
2022-11-19T15:31:37.263Z,1.39
2022-11-19T15:35:10.176Z,1.22
2022-11-19T15:37:51.714Z,1.38
2022-11-19T15:40:29.361Z,1.58
2022-11-19T15:43:09.895Z,1.79
2022-11-19T15:45:48.037Z,1.55
2022-11-19T15:48:23.856Z,1.18
2022-11-19T15:50:59.155Z,1.31
2022-11-19T15:53:31.516Z,1.59
2022-11-19T15:56:07.357Z,1.67
2022-11-19T15:58:42.140Z,1.99
2022-11-19T16:01:29.922Z,1.30
2022-11-19T16:04:06.322Z,0.55
2022-11-19T16:06:45.375Z,0.69
2022-11-19T16:09:22.862Z,1.18
2022-11-19T16:12:08.250Z,1.05
2022-11-19T16:15:05.684Z,0.88
2022-11-19T16:17:44.139Z,0.25
2022-11-19T16:20:30.270Z,0.43
2022-11-19T16:23:08.510Z,0.73
2022-11-19T16:25:42.863Z,0.95
2022-11-19T16:28:17.641Z,1.05
2022-11-19T16:30:53.478Z,1.22
2022-11-19T16:33:40.039Z,1.45
2022-11-19T16:36:18.860Z,0.91
2022-11-19T16:38:56.940Z,0.84
2022-11-19T16:41:42.241Z,0.40
2022-11-19T16:44:19.151Z,0.69
2022-11-19T16:47:06.740Z,0.97
2022-11-19T16:49:56.298Z,0.28
2022-11-19T16:52:44.441Z,0.41
2022-11-19T16:55:43.766Z,0.24
2022-11-19T16:58:31.647Z,0.36
2022-11-19T17:01:05.448Z,0.45
2022-11-19T17:03:41.016Z,0.47
2022-11-19T17:06:37.886Z,0.69
2022-11-19T17:09:10.067Z,0.87
2022-11-19T17:12:05.533Z,0.77
2022-11-19T17:14:59.465Z,0.60
2022-11-19T17:17:40.614Z,0.40
2022-11-19T17:20:42.805Z,0.55
2022-11-19T17:23:19.324Z,0.72
2022-11-19T17:25:52.804Z,0.83
2022-11-19T17:28:35.394Z,0.88
2022-11-19T17:31:17.205Z,0.80
2022-11-19T17:33:54.868Z,0.89
2022-11-19T17:36:27.947Z,0.92
2022-11-19T17:39:00.366Z,1.20
2022-11-19T17:41:45.083Z,1.23
2022-11-19T17:44:36.800Z,1.00
2022-11-19T17:47:24.494Z,0.56
2022-11-19T17:49:59.571Z,1.05
2022-11-19T17:52:34.684Z,1.28
2022-11-19T17:55:22.721Z,1.00
2022-11-19T17:57:54.107Z,0.80
2022-11-19T18:00:28.734Z,1.32
2022-11-19T18:03:03.258Z,1.07
2022-11-19T18:05:40.890Z,0.83
2022-11-19T18:08:13.049Z,1.19
2022-11-19T18:10:47.789Z,0.86
2022-11-19T18:13:23.712Z,0.66
2022-11-19T18:15:58.710Z,0.66
2022-11-19T18:18:31.050Z,0.99
2022-11-19T18:21:03.672Z,1.40
2022-11-19T18:23:35.791Z,1.49
2022-11-19T18:26:08.372Z,0.87
2022-11-19T18:28:44.892Z,0.82
2022-11-19T18:31:26.286Z,0.76
2022-11-19T18:33:58.749Z,0.90
2022-11-19T18:36:31.309Z,1.30
2022-11-19T18:39:03.456Z,0.77
2022-11-19T18:41:35.798Z,1.08
2022-11-19T18:44:20.446Z,1.24
2022-11-19T18:46:55.560Z,0.94
2022-11-19T18:49:30.338Z,0.99
2022-11-19T18:52:03.023Z,0.96
2022-11-19T18:54:34.656Z,0.75
2022-11-19T18:57:07.423Z,1.46
2022-11-19T18:59:39.692Z,1.48
2022-11-19T19:02:14.705Z,0.69
2022-11-19T19:04:50.833Z,1.05
2022-11-19T19:07:23.123Z,1.37
2022-11-19T19:09:54.503Z,1.49
2022-11-19T19:12:23.900Z,1.42
2022-11-19T19:14:56.270Z,1.44
2022-11-19T19:17:33.068Z,1.40
2022-11-19T19:20:06.387Z,1.57
2022-11-19T19:22:38.979Z,0.94
2022-11-19T19:25:11.059Z,1.11
2022-11-19T19:27:42.894Z,1.48
2022-11-19T19:30:16.189Z,1.82
2022-11-19T19:32:51.128Z,1.65
2022-11-19T19:35:22.779Z,1.86
2022-11-19T19:37:54.803Z,2.53
2022-11-19T19:40:27.203Z,1.57
2022-11-19T19:42:59.165Z,1.36
2022-11-19T19:45:53.844Z,1.14
2022-11-19T19:48:31.129Z,1.54
2022-11-19T19:51:02.818Z,1.35
2022-11-19T19:53:34.818Z,1.54
2022-11-19T19:56:12.786Z,1.26
2022-11-19T19:58:46.819Z,1.08
2022-11-19T20:01:21.679Z,1.30
2022-11-19T20:03:57.319Z,1.35
2022-11-19T20:06:28.853Z,1.59
2022-11-19T20:09:05.515Z,1.69
2022-11-19T20:11:40.390Z,1.77
2022-11-19T20:14:13.198Z,1.40
2022-11-19T20:16:44.961Z,1.48
2022-11-19T20:19:20.037Z,1.56
2022-11-19T20:21:52.650Z,1.53
2022-11-19T20:24:24.666Z,1.08
2022-11-19T20:26:56.232Z,1.39
2022-11-19T20:29:28.451Z,1.42
2022-11-19T20:31:59.662Z,1.70
2022-11-19T20:34:34.674Z,1.89
2022-11-19T20:37:06.479Z,2.21
2022-11-19T20:39:38.986Z,1.88
2022-11-19T20:42:22.412Z,1.75
2022-11-19T20:44:53.941Z,1.40
2022-11-19T20:47:25.314Z,1.89
2022-11-19T20:49:59.694Z,1.80
2022-11-19T20:52:31.153Z,1.68
2022-11-19T20:55:06.662Z,1.73
2022-11-19T20:57:38.377Z,1.80
2022-11-19T21:00:11.790Z,1.06
2022-11-19T21:02:43.159Z,1.24
2022-11-19T21:05:20.442Z,1.71
2022-11-19T21:07:51.893Z,1.34
2022-11-19T21:10:23.726Z,1.75
2022-11-19T21:13:07.075Z,1.74
2022-11-19T21:15:39.097Z,2.00
2022-11-19T21:18:10.393Z,1.53
2022-11-19T21:20:45.669Z,1.29
2022-11-19T21:23:19.618Z,1.49
2022-11-19T21:25:51.809Z,1.73
2022-11-19T21:28:23.222Z,2.09
2022-11-19T21:30:55.165Z,2.29
2022-11-19T21:33:27.241Z,1.82
2022-11-19T21:36:03.496Z,1.68
2022-11-19T21:38:34.653Z,1.46
2022-11-19T21:41:08.220Z,1.88
2022-11-19T21:43:40.144Z,1.83
2022-11-19T21:46:12.756Z,1.69
2022-11-19T21:48:43.942Z,1.89
2022-11-19T21:51:24.109Z,2.15
2022-11-19T21:53:58.006Z,2.11
2022-11-19T21:56:35.541Z,1.86
2022-11-19T21:59:10.422Z,1.46
2022-11-19T22:01:42.704Z,1.69
2022-11-19T22:04:16.847Z,1.91
2022-11-19T22:06:51.555Z,2.25
2022-11-19T22:09:24.058Z,1.89
2022-11-19T22:11:56.206Z,2.18
2022-11-19T22:14:27.909Z,2.05
2022-11-19T22:16:59.536Z,1.87
2022-11-19T22:19:30.917Z,1.98
2022-11-19T22:22:05.641Z,2.36
2022-11-19T22:24:36.562Z,2.52
2022-11-19T22:27:08.222Z,2.15
2022-11-19T22:29:39.589Z,1.88
2022-11-19T22:32:11.334Z,2.16
2022-11-19T22:34:42.692Z,2.23
2022-11-19T22:37:17.283Z,2.37
2022-11-19T22:39:48.407Z,2.35
2022-11-19T22:42:22.976Z,2.23
2022-11-19T22:44:57.140Z,2.52
2022-11-19T22:47:29.161Z,2.45
2022-11-19T22:50:00.961Z,2.37
2022-11-19T22:52:35.749Z,2.46
2022-11-19T22:55:07.968Z,2.35
2022-11-19T22:57:39.952Z,2.45
2022-11-19T23:00:15.040Z,2.65
2022-11-19T23:02:47.123Z,2.61
2022-11-19T23:05:18.717Z,2.62
2022-11-19T23:07:53.281Z,2.28
2022-11-19T23:10:24.856Z,2.49
2022-11-19T23:13:12.332Z,2.22
2022-11-19T23:15:44.145Z,2.19
2022-11-19T23:18:16.401Z,2.51
2022-11-19T23:20:48.402Z,2.38
2022-11-19T23:23:23.156Z,2.23
2022-11-19T23:26:00.335Z,2.15
2022-11-19T23:28:34.412Z,2.07
2022-11-19T23:31:08.759Z,2.20
2022-11-19T23:33:41.020Z,1.80
2022-11-19T23:36:15.716Z,1.81
2022-11-19T23:38:50.916Z,1.79
2022-11-19T23:41:23.821Z,2.13
2022-11-19T23:43:57.585Z,1.96
2022-11-19T23:46:31.446Z,1.48
2022-11-19T23:49:03.929Z,1.84
2022-11-19T23:51:38.119Z,2.24
2022-11-19T23:54:16.502Z,2.09
2022-11-19T23:56:48.152Z,2.62
2022-11-19T23:59:25.329Z,2.51
